createdAt,value
2023-05-20T00:01:29.755Z,101848.16
2023-05-20T00:03:57.691Z,101861.34
2023-05-20T00:06:27.094Z,101856.41
2023-05-20T00:08:55.729Z,101853.69
2023-05-20T00:11:23.863Z,101853.56
2023-05-20T00:13:51.705Z,101848.22
2023-05-20T00:16:19.517Z,101849.72
2023-05-20T00:18:47.305Z,101850.59
2023-05-20T00:21:15.072Z,101850.25
2023-05-20T00:23:44.289Z,101851.84
2023-05-20T00:26:12.026Z,101853.88
2023-05-20T00:28:39.707Z,101860.56
2023-05-20T00:31:07.400Z,101850.91
2023-05-20T00:33:36.403Z,101860.28
2023-05-20T00:36:04.166Z,101856.13
2023-05-20T00:38:31.935Z,101856.44
2023-05-20T00:41:01.266Z,101851.56
2023-05-20T00:43:29.057Z,101851.03
2023-05-20T00:45:56.803Z,101846.78
2023-05-20T00:48:24.562Z,101840.34
2023-05-20T00:50:52.912Z,101847.06
2023-05-20T00:53:21.264Z,101842.72
2023-05-20T00:55:49.039Z,101848.50
2023-05-20T00:58:18.168Z,101835.94
2023-05-20T01:00:46.281Z,101843.81
2023-05-20T01:03:14.331Z,101841.56
2023-05-20T01:05:42.558Z,101837.41
2023-05-20T01:08:10.479Z,101840.50
2023-05-20T01:10:40.592Z,101846.78
2023-05-20T01:13:10.904Z,101838.72
2023-05-20T01:15:41.714Z,101840.84
2023-05-20T01:18:10.714Z,101835.09
2023-05-20T01:20:39.390Z,101837.00
2023-05-20T01:23:08.687Z,101831.34
2023-05-20T01:25:36.537Z,101833.72
2023-05-20T01:28:04.612Z,101834.38
2023-05-20T01:30:38.351Z,101832.78
2023-05-20T01:33:08.343Z,101828.19
2023-05-20T01:35:36.641Z,101829.09
2023-05-20T01:38:06.337Z,101833.19
2023-05-20T01:40:35.879Z,101832.41
2023-05-20T01:43:04.358Z,101830.69
2023-05-20T01:45:32.683Z,101827.53
2023-05-20T01:48:01.778Z,101832.53
2023-05-20T01:50:29.645Z,101833.47
2023-05-20T01:52:57.476Z,101822.22
2023-05-20T01:55:25.183Z,101823.16
2023-05-20T01:57:54.240Z,101823.03
2023-05-20T02:00:22.204Z,101818.16
2023-05-20T02:02:50.027Z,101811.94
2023-05-20T02:05:17.944Z,101810.22
2023-05-20T02:07:45.815Z,101811.69
2023-05-20T02:10:13.810Z,101810.69
2023-05-20T02:12:41.630Z,101813.31
2023-05-20T02:15:11.334Z,101818.47
2023-05-20T02:17:39.755Z,101809.94
2023-05-20T02:20:09.234Z,101809.56
2023-05-20T02:22:36.982Z,101807.97
2023-05-20T02:25:05.098Z,101808.56
2023-05-20T02:27:32.805Z,101811.28
2023-05-20T02:30:01.420Z,101807.97
2023-05-20T02:32:30.530Z,101815.72
2023-05-20T02:34:58.261Z,101809.91
2023-05-20T02:37:26.387Z,101811.41
2023-05-20T02:39:54.066Z,101805.63
2023-05-20T02:42:21.822Z,101819.75
2023-05-20T02:44:49.629Z,101803.59
2023-05-20T02:47:17.352Z,101801.13
2023-05-20T02:49:46.784Z,101795.13
2023-05-20T02:52:16.141Z,101796.81
2023-05-20T02:54:43.894Z,101805.34
2023-05-20T02:57:12.020Z,101804.50
2023-05-20T02:59:39.764Z,101797.88
2023-05-20T03:02:07.482Z,101791.00
2023-05-20T03:04:38.507Z,101783.88
2023-05-20T03:07:09.050Z,101785.44
2023-05-20T03:09:36.838Z,101797.41
2023-05-20T03:12:04.816Z,101798.38
2023-05-20T03:14:32.488Z,101793.22
2023-05-20T03:17:00.241Z,101798.63
2023-05-20T03:19:28.134Z,101800.56
2023-05-20T03:21:55.999Z,101802.41
2023-05-20T03:24:25.062Z,101807.91
2023-05-20T03:26:52.816Z,101805.63
2023-05-20T03:29:21.288Z,101814.91
2023-05-20T03:31:49.082Z,101802.63
2023-05-20T03:34:16.825Z,101813.53
2023-05-20T03:36:44.578Z,101816.75
2023-05-20T03:39:12.271Z,101812.63
2023-05-20T03:41:41.357Z,101805.81
2023-05-20T03:44:09.048Z,101812.75
2023-05-20T03:46:37.181Z,101814.47
2023-05-20T03:49:05.876Z,101812.19
2023-05-20T03:51:33.566Z,101808.38
2023-05-20T03:54:01.324Z,101812.06
2023-05-20T03:56:29.113Z,101819.63
2023-05-20T03:58:58.258Z,101815.16
2023-05-20T04:01:27.759Z,101815.00
2023-05-20T04:03:55.583Z,101829.94
2023-05-20T04:06:23.524Z,101812.25
2023-05-20T04:08:52.896Z,101815.97
2023-05-20T04:11:21.439Z,101815.97
2023-05-20T04:13:49.141Z,101814.09
2023-05-20T04:16:18.347Z,101820.66
2023-05-20T04:18:46.250Z,101817.34
2023-05-20T04:21:14.109Z,101832.56
2023-05-20T04:23:42.020Z,101827.53
2023-05-20T04:26:09.739Z,101829.47
2023-05-20T04:28:37.820Z,101826.97
2023-05-20T04:31:05.933Z,101828.59
2023-05-20T04:33:38.690Z,101831.72
2023-05-20T04:36:08.671Z,101818.13
2023-05-20T04:38:36.382Z,101829.53
2023-05-20T04:41:04.113Z,101826.00
2023-05-20T04:43:31.830Z,101831.78
2023-05-20T04:46:01.421Z,101830.66
2023-05-20T04:48:29.244Z,101823.78
2023-05-20T04:50:58.377Z,101829.31
2023-05-20T04:53:26.187Z,101819.50
2023-05-20T04:55:57.003Z,101821.09
2023-05-20T04:58:25.373Z,101828.19
2023-05-20T05:00:54.018Z,101827.34
2023-05-20T05:03:21.752Z,101845.84
2023-05-20T05:05:49.560Z,101837.72
2023-05-20T05:08:18.653Z,101849.47
2023-05-20T05:10:46.618Z,101842.91
2023-05-20T05:13:14.394Z,101859.22
2023-05-20T05:15:42.239Z,101859.88
2023-05-20T05:18:10.196Z,101826.50
2023-05-20T05:20:38.088Z,101836.06
2023-05-20T05:23:05.813Z,101819.50
2023-05-20T05:25:35.024Z,101831.88
2023-05-20T05:28:02.990Z,101853.13
2023-05-20T05:30:30.723Z,101846.78
2023-05-20T05:33:45.477Z,101819.53
2023-05-20T05:36:13.165Z,101826.13
2023-05-20T05:38:40.967Z,101821.03
2023-05-20T05:41:08.695Z,101809.66
2023-05-20T05:43:36.607Z,101815.75
2023-05-20T05:46:05.153Z,101830.38
2023-05-20T05:48:33.300Z,101825.84
2023-05-20T05:51:02.790Z,101832.69
2023-05-20T05:53:30.539Z,101822.25
2023-05-20T05:55:58.274Z,101820.88
2023-05-20T05:58:26.004Z,101823.56
2023-05-20T06:00:54.807Z,101808.75
2023-05-20T06:03:22.991Z,101811.84
2023-05-20T06:05:51.011Z,101822.53
2023-05-20T06:08:20.077Z,101805.56
2023-05-20T06:10:50.192Z,101808.53
2023-05-20T06:13:18.095Z,101816.94
2023-05-20T06:15:46.481Z,101830.34
2023-05-20T06:18:14.288Z,101822.13
2023-05-20T06:20:42.055Z,101827.03
2023-05-20T06:23:09.807Z,101831.97
2023-05-20T06:25:38.873Z,101823.03
2023-05-20T06:28:06.597Z,101820.22
2023-05-20T06:30:34.298Z,101817.44
2023-05-20T06:33:02.057Z,101811.69
2023-05-20T06:35:29.766Z,101816.03
2023-05-20T06:37:57.566Z,101818.16
2023-05-20T06:40:27.207Z,101814.50
2023-05-20T06:42:56.384Z,101805.31
2023-05-20T06:45:24.091Z,101794.25
2023-05-20T06:47:54.149Z,101789.13
2023-05-20T06:50:22.111Z,101800.31
2023-05-20T06:52:49.839Z,101796.50
2023-05-20T06:55:17.721Z,101804.38
2023-05-20T06:57:45.735Z,101785.97
2023-05-20T07:00:15.644Z,101794.31
2023-05-20T07:02:43.531Z,101796.03
2023-05-20T07:05:11.838Z,101796.31
2023-05-20T07:07:39.919Z,101778.81
2023-05-20T07:10:09.155Z,101792.47
2023-05-20T07:12:37.197Z,101786.97
2023-05-20T07:15:05.242Z,101788.88
2023-05-20T07:17:34.335Z,101783.16
2023-05-20T07:20:02.156Z,101784.94
2023-05-20T07:22:29.875Z,101779.63
2023-05-20T07:24:57.669Z,101775.91
2023-05-20T07:27:25.361Z,101795.28
2023-05-20T07:29:53.530Z,101792.50
2023-05-20T07:32:21.726Z,101794.72
2023-05-20T07:34:50.805Z,101788.38
2023-05-20T07:37:18.506Z,101781.69
2023-05-20T07:39:46.274Z,101777.75
2023-05-20T07:42:14.045Z,101780.09
2023-05-20T07:44:41.906Z,101780.50
2023-05-20T07:47:09.608Z,101786.81
2023-05-20T07:49:37.290Z,101781.94
2023-05-20T07:52:07.067Z,101765.97
2023-05-20T07:54:36.594Z,101778.63
2023-05-20T07:57:04.325Z,101768.53
2023-05-20T07:59:32.008Z,101768.88
2023-05-20T08:01:59.851Z,101769.78
2023-05-20T08:04:28.158Z,101762.41
2023-05-20T08:06:56.186Z,101758.44
2023-05-20T08:09:25.344Z,101763.19
2023-05-20T08:11:53.039Z,101759.13
2023-05-20T08:14:20.920Z,101758.03
2023-05-20T08:16:48.739Z,101759.22
2023-05-20T08:19:16.596Z,101761.56
2023-05-20T08:21:44.593Z,101771.34
2023-05-20T08:24:12.308Z,101746.91
2023-05-20T08:26:41.662Z,101751.50
2023-05-20T08:29:09.587Z,101746.13
2023-05-20T08:31:37.415Z,101757.00
2023-05-20T08:34:05.150Z,101737.19
2023-05-20T08:36:33.001Z,101736.00
2023-05-20T08:39:00.682Z,101746.50
2023-05-20T08:41:28.424Z,101739.00
2023-05-20T08:43:58.644Z,101750.25
2023-05-20T08:46:26.617Z,101750.16
2023-05-20T08:48:54.340Z,101756.91
2023-05-20T08:51:23.854Z,101732.09
2023-05-20T08:53:52.231Z,101747.78
2023-05-20T08:56:20.356Z,101739.78
2023-05-20T08:58:48.083Z,101731.53
2023-05-20T09:01:18.037Z,101725.06
2023-05-20T09:03:45.768Z,101722.03
2023-05-20T09:06:20.086Z,101726.03
2023-05-20T09:08:49.639Z,101725.25
2023-05-20T09:11:17.398Z,101714.25
2023-05-20T09:13:45.370Z,101704.34
2023-05-20T09:16:13.596Z,101701.69
2023-05-20T09:18:43.532Z,101720.44
2023-05-20T09:21:11.705Z,101726.53
2023-05-20T09:23:39.576Z,101718.63
2023-05-20T09:26:07.712Z,101707.69
2023-05-20T09:28:38.257Z,101704.97
2023-05-20T09:31:07.194Z,101695.06
2023-05-20T09:33:35.778Z,101697.28
2023-05-20T09:36:07.033Z,101719.22
2023-05-20T09:38:37.928Z,101706.59
2023-05-20T09:41:09.617Z,101694.03
2023-05-20T09:43:37.460Z,101696.16
2023-05-20T09:46:05.785Z,101690.91
2023-05-20T09:48:34.455Z,101697.53
2023-05-20T09:51:02.866Z,101687.47
2023-05-20T09:53:32.337Z,101684.47
2023-05-20T09:56:00.395Z,101681.16
2023-05-20T09:58:28.367Z,101677.03
2023-05-20T10:00:56.141Z,101687.53
2023-05-20T10:03:25.255Z,101697.47
2023-05-20T10:06:03.036Z,101695.13
2023-05-20T10:08:42.704Z,101708.16
2023-05-20T10:11:16.753Z,101707.97
2023-05-20T10:13:54.750Z,101684.81
2023-05-20T10:16:31.158Z,101666.81
2023-05-20T10:19:05.059Z,101668.06
2023-05-20T10:21:33.812Z,101674.72
2023-05-20T10:24:09.174Z,101664.81
2023-05-20T10:26:38.272Z,101668.75
2023-05-20T10:29:16.580Z,101669.25
2023-05-20T10:31:51.273Z,101660.00
2023-05-20T10:34:20.496Z,101650.44
2023-05-20T10:36:58.290Z,101622.53
2023-05-20T10:39:29.656Z,101631.25
2023-05-20T10:42:08.310Z,101636.66
2023-05-20T10:44:43.509Z,101619.59
2023-05-20T10:49:46.068Z,101620.47
2023-05-20T10:52:14.394Z,101609.97
2023-05-20T10:54:50.151Z,101615.41
2023-05-20T10:57:20.032Z,101610.59
2023-05-20T10:59:48.484Z,101617.06
2023-05-20T11:02:17.518Z,101625.88
2023-05-20T11:04:45.797Z,101622.28
2023-05-20T11:07:13.617Z,101614.03
2023-05-20T11:09:52.046Z,101618.91
2023-05-20T11:12:19.881Z,101598.09
2023-05-20T11:14:49.413Z,101597.59
2023-05-20T11:17:17.407Z,101609.19
2023-05-20T11:19:45.116Z,101598.44
2023-05-20T11:22:13.007Z,101613.03
2023-05-20T11:24:40.847Z,101582.16
2023-05-20T11:27:10.318Z,101595.88
2023-05-20T11:29:38.296Z,101598.94
2023-05-20T11:32:06.829Z,101605.59
2023-05-20T11:34:35.317Z,101611.88
2023-05-20T11:37:03.085Z,101601.88
2023-05-20T11:39:31.459Z,101586.97
2023-05-20T11:41:59.558Z,101578.75
2023-05-20T11:44:28.716Z,101569.19
2023-05-20T11:47:01.603Z,101575.75
2023-05-20T11:49:30.698Z,101581.00
2023-05-20T11:51:58.505Z,101591.41
2023-05-20T11:54:26.427Z,101580.94
2023-05-20T11:56:55.680Z,101558.38
2023-05-20T11:59:25.431Z,101564.69
2023-05-20T12:01:54.667Z,101544.38
2023-05-20T12:04:22.578Z,101573.19
2023-05-20T12:06:50.354Z,101557.13
2023-05-20T12:09:18.055Z,101564.91
2023-05-20T12:11:45.787Z,101564.19
2023-05-20T12:14:13.567Z,101560.66
2023-05-20T12:16:41.359Z,101559.09
2023-05-20T12:19:10.499Z,101549.50
2023-05-20T12:21:38.281Z,101553.97
2023-05-20T12:24:08.465Z,101551.56
2023-05-20T12:26:36.505Z,101577.03
2023-05-20T12:29:04.198Z,101567.91
2023-05-20T12:31:34.694Z,101558.06
2023-05-20T12:34:02.905Z,101552.63
2023-05-20T12:36:32.374Z,101553.53
2023-05-20T12:39:00.145Z,101551.72
2023-05-20T12:41:27.880Z,101536.97
2023-05-20T12:43:55.623Z,101544.34
2023-05-20T12:46:23.553Z,101549.16
2023-05-20T12:48:51.355Z,101525.59
2023-05-20T12:51:20.231Z,101526.41
2023-05-20T12:53:49.444Z,101531.63
2023-05-20T12:56:17.696Z,101525.53
2023-05-20T12:58:45.400Z,101529.47
2023-05-20T13:01:13.158Z,101529.84
2023-05-20T13:03:41.462Z,101539.81
2023-05-20T13:06:09.234Z,101526.22
2023-05-20T13:08:36.910Z,101501.00
2023-05-20T13:11:05.996Z,101490.91
2023-05-20T13:13:33.720Z,101512.09
2023-05-20T13:16:01.449Z,101495.72
2023-05-20T13:18:29.198Z,101509.97
2023-05-20T13:20:57.073Z,101502.56
2023-05-20T13:23:24.800Z,101506.91
2023-05-20T13:25:52.852Z,101493.31
2023-05-20T13:28:22.438Z,101467.34
2023-05-20T13:30:50.175Z,101477.44
2023-05-20T13:33:18.106Z,101492.00
2023-05-20T13:35:45.823Z,101504.53
2023-05-20T13:38:13.568Z,101503.34
2023-05-20T13:40:41.299Z,101495.69
2023-05-20T13:43:09.059Z,101497.56
2023-05-20T13:45:38.120Z,101500.47
2023-05-20T13:48:06.689Z,101502.53
2023-05-20T13:50:34.641Z,101507.28
2023-05-20T13:53:02.921Z,101492.31
2023-05-20T13:55:31.593Z,101491.97
2023-05-20T13:57:59.341Z,101485.63
2023-05-20T14:00:27.079Z,101493.75
2023-05-20T14:02:56.295Z,101485.06
2023-05-20T14:05:24.173Z,101472.94
2023-05-20T14:07:51.947Z,101457.13
2023-05-20T14:10:19.738Z,101451.44
2023-05-20T14:12:48.248Z,101464.59
2023-05-20T14:15:16.384Z,101467.97
2023-05-20T14:17:44.175Z,101457.06
2023-05-20T14:20:13.738Z,101468.44
2023-05-20T14:22:41.456Z,101464.91
2023-05-20T14:25:09.694Z,101455.66
2023-05-20T14:27:37.845Z,101447.19
2023-05-20T14:30:06.810Z,101456.22
2023-05-20T14:32:34.724Z,101457.22
2023-05-20T14:35:02.486Z,101453.13
2023-05-20T14:37:31.638Z,101438.75
2023-05-20T14:39:59.382Z,101437.28
2023-05-20T14:42:27.266Z,101433.44
2023-05-20T14:44:54.953Z,101421.13
2023-05-20T14:47:22.827Z,101418.06
2023-05-20T14:49:51.185Z,101424.16
2023-05-20T14:52:19.132Z,101427.63
2023-05-20T14:54:48.268Z,101429.44
2023-05-20T14:57:16.813Z,101429.66
2023-05-20T14:59:44.695Z,101432.31
2023-05-20T15:02:15.450Z,101435.53
2023-05-20T15:04:46.301Z,101406.66
2023-05-20T15:07:14.188Z,101448.78
2023-05-20T15:09:41.947Z,101436.19
2023-05-20T15:12:11.923Z,101441.84
2023-05-20T15:14:39.658Z,101417.16
2023-05-20T15:17:07.686Z,101424.38
2023-05-20T15:19:36.951Z,101419.03
2023-05-20T15:22:05.764Z,101429.03
2023-05-20T15:24:33.541Z,101412.84
2023-05-20T15:27:01.237Z,101424.59
2023-05-20T15:29:30.373Z,101417.06
2023-05-20T15:31:58.115Z,101426.78
2023-05-20T15:34:25.805Z,101422.41
2023-05-20T15:36:53.785Z,101434.97
2023-05-20T15:39:21.488Z,101418.03
2023-05-20T15:41:49.999Z,101408.72
2023-05-20T15:44:17.761Z,101427.91
2023-05-20T15:46:47.287Z,101427.59
2023-05-20T15:49:15.118Z,101420.25
2023-05-20T15:51:52.376Z,101409.84
2023-05-20T15:54:30.094Z,101421.03
2023-05-20T15:56:57.940Z,101389.34
2023-05-20T15:59:25.870Z,101382.16
2023-05-20T16:01:55.025Z,101381.75
2023-05-20T16:04:23.098Z,101372.25
2023-05-20T16:06:50.963Z,101381.25
2023-05-20T16:09:18.831Z,101388.94
2023-05-20T16:11:47.818Z,101382.31
2023-05-20T16:14:15.604Z,101376.19
2023-05-20T16:16:43.429Z,101372.41
2023-05-20T16:19:12.626Z,101352.75
2023-05-20T16:21:40.390Z,101363.28
2023-05-20T16:24:08.113Z,101373.47
2023-05-20T16:26:35.810Z,101361.53
2023-05-20T16:29:03.510Z,101360.38
2023-05-20T16:31:31.261Z,101370.22
2023-05-20T16:33:58.977Z,101370.47
2023-05-20T16:36:28.155Z,101377.06
2023-05-20T16:38:56.011Z,101355.44
2023-05-20T16:41:23.841Z,101365.50
2023-05-20T16:43:51.585Z,101357.53
2023-05-20T16:46:19.335Z,101367.25
2023-05-20T16:48:47.169Z,101361.44
2023-05-20T16:51:14.901Z,101355.03
2023-05-20T16:53:43.981Z,101371.00
2023-05-20T16:56:11.679Z,101376.78
2023-05-20T16:58:39.435Z,101377.91
2023-05-20T17:01:08.243Z,101373.25
2023-05-20T17:03:36.369Z,101361.66
2023-05-20T17:06:04.132Z,101360.13
2023-05-20T17:08:31.965Z,101365.78
2023-05-20T17:11:01.499Z,101371.09
2023-05-20T17:13:29.195Z,101376.31
2023-05-20T17:15:56.952Z,101362.28
2023-05-20T17:18:24.716Z,101374.41
2023-05-20T17:20:52.403Z,101365.41
2023-05-20T17:23:20.152Z,101380.09
2023-05-20T17:25:47.937Z,101371.72
2023-05-20T17:28:17.021Z,101375.81
2023-05-20T17:30:44.719Z,101371.03
2023-05-20T17:33:12.516Z,101380.59
2023-05-20T17:35:40.755Z,101383.84
2023-05-20T17:38:08.530Z,101377.81
2023-05-20T17:40:36.550Z,101373.78
2023-05-20T17:43:04.502Z,101383.75
2023-05-20T17:45:33.621Z,101368.44
2023-05-20T17:48:02.485Z,101397.59
2023-05-20T17:50:30.362Z,101382.69
2023-05-20T17:52:58.058Z,101377.56
2023-05-20T17:55:25.778Z,101374.59
2023-05-20T17:57:53.538Z,101381.91
2023-05-20T18:00:21.672Z,101380.16
2023-05-20T18:02:51.731Z,101378.19
2023-05-20T18:05:19.529Z,101396.53
2023-05-20T18:07:47.380Z,101393.59
2023-05-20T18:10:15.260Z,101403.66
2023-05-20T18:12:45.282Z,101404.56
2023-05-20T18:15:14.238Z,101383.28
2023-05-20T18:17:41.979Z,101403.25
2023-05-20T18:20:12.682Z,101392.63
2023-05-20T18:22:45.021Z,101392.09
2023-05-20T18:25:13.023Z,101407.34
2023-05-20T18:27:41.070Z,101393.69
2023-05-20T18:30:09.834Z,101395.44
2023-05-20T18:32:38.869Z,101383.22
2023-05-20T18:35:07.658Z,101388.78
2023-05-20T18:37:36.704Z,101388.34
2023-05-20T18:40:06.475Z,101389.50
2023-05-20T18:42:34.240Z,101392.59
2023-05-20T18:45:01.968Z,101407.31
2023-05-20T18:47:29.821Z,101404.53
2023-05-20T18:49:57.574Z,101397.63
2023-05-20T18:52:25.445Z,101393.66
2023-05-20T18:54:54.522Z,101387.06
2023-05-20T18:57:22.536Z,101378.56
2023-05-20T18:59:50.514Z,101386.44
2023-05-20T19:02:18.501Z,101390.28
2023-05-20T19:04:46.231Z,101375.50
2023-05-20T19:07:13.950Z,101377.94
2023-05-20T19:09:41.665Z,101382.09
2023-05-20T19:12:10.967Z,101392.63
2023-05-20T19:14:38.689Z,101389.66
2023-05-20T19:17:07.125Z,101386.88
2023-05-20T19:19:34.916Z,101376.00
2023-05-20T19:22:02.640Z,101379.00
2023-05-20T19:24:32.000Z,101384.75
2023-05-20T19:27:00.131Z,101384.53
2023-05-20T19:29:29.305Z,101392.94
2023-05-20T19:31:57.538Z,101398.28
2023-05-20T19:34:25.499Z,101395.56
2023-05-20T19:36:53.184Z,101396.09
2023-05-20T19:39:21.971Z,101398.34
2023-05-20T19:41:49.789Z,101395.16
2023-05-20T19:44:18.914Z,101401.56
2023-05-20T19:46:48.227Z,101405.00
2023-05-20T19:49:15.967Z,101409.34
2023-05-20T19:51:44.044Z,101412.66
2023-05-20T19:54:11.817Z,101403.66
2023-05-20T19:56:39.659Z,101406.75
2023-05-20T19:59:07.403Z,101398.94
2023-05-20T20:01:35.164Z,101398.47
2023-05-20T20:04:04.377Z,101397.19
2023-05-20T20:06:32.426Z,101395.38
2023-05-20T20:09:00.163Z,101402.34
2023-05-20T20:11:27.886Z,101403.22
2023-05-20T20:13:55.597Z,101412.84
2023-05-20T20:16:23.403Z,101402.91
2023-05-20T20:18:51.230Z,101408.47
2023-05-20T20:21:20.391Z,101403.78
2023-05-20T20:23:48.126Z,101409.16
2023-05-20T20:26:16.236Z,101408.44
2023-05-20T20:28:43.956Z,101405.13
2023-05-20T20:31:11.744Z,101404.41
2023-05-20T20:33:39.471Z,101397.28
2023-05-20T20:36:08.856Z,101392.03
2023-05-20T20:38:38.677Z,101397.56
2023-05-20T20:41:09.455Z,101392.16
2023-05-20T20:43:38.074Z,101396.19
2023-05-20T20:46:06.345Z,101382.53
2023-05-20T20:48:34.540Z,101385.94
2023-05-20T20:51:02.262Z,101377.63
2023-05-20T20:53:30.025Z,101389.50
2023-05-20T20:55:59.195Z,101384.94
2023-05-20T20:58:27.054Z,101386.09
2023-05-20T21:00:54.982Z,101395.25
2023-05-20T21:03:23.926Z,101389.47
2023-05-20T21:05:51.862Z,101393.03
2023-05-20T21:08:22.072Z,101395.59
2023-05-20T21:10:49.794Z,101388.34
2023-05-20T21:13:19.105Z,101399.91
2023-05-20T21:15:47.349Z,101392.88
2023-05-20T21:18:21.614Z,101392.69
2023-05-20T21:20:49.470Z,101389.69
2023-05-20T21:23:17.176Z,101383.22
2023-05-20T21:25:45.072Z,101382.00
2023-05-20T21:28:12.967Z,101380.47
2023-05-20T21:30:42.135Z,101380.78
2023-05-20T21:33:09.902Z,101382.28
2023-05-20T21:35:37.946Z,101384.09
2023-05-20T21:38:05.808Z,101393.66
2023-05-20T21:40:33.781Z,101383.19
2023-05-20T21:43:01.572Z,101392.66
2023-05-20T21:45:29.270Z,101398.59
2023-05-20T21:47:58.366Z,101391.81
2023-05-20T21:50:26.112Z,101399.41
2023-05-20T21:52:53.872Z,101400.56
2023-05-20T21:55:23.631Z,101388.00
2023-05-20T21:57:51.781Z,101371.19
2023-05-20T22:00:20.602Z,101382.88
2023-05-20T22:02:48.572Z,101375.06
2023-05-20T22:05:18.271Z,101368.28
2023-05-20T22:07:46.363Z,101367.84
2023-05-20T22:10:14.576Z,101373.06
2023-05-20T22:12:43.200Z,101357.41
2023-05-20T22:15:12.037Z,101359.47
2023-05-20T22:17:39.801Z,101363.97
2023-05-20T22:20:10.476Z,101368.69
2023-05-20T22:22:39.865Z,101360.88
2023-05-20T22:25:08.443Z,101356.31
2023-05-20T22:27:36.226Z,101361.88
2023-05-20T22:30:06.127Z,101354.00
2023-05-20T22:32:33.994Z,101351.25
2023-05-20T22:35:01.738Z,101343.91
2023-05-20T22:37:30.014Z,101348.91
2023-05-20T22:39:59.109Z,101342.38
2023-05-20T22:42:26.848Z,101345.69
2023-05-20T22:44:54.596Z,101338.00
2023-05-20T22:47:22.404Z,101331.41
2023-05-20T22:49:50.798Z,101326.25
2023-05-20T22:52:18.836Z,101331.41
2023-05-20T22:54:46.683Z,101331.13
2023-05-20T22:57:17.043Z,101327.03
2023-05-20T22:59:44.708Z,101323.03
2023-05-20T23:02:12.505Z,101316.97
2023-05-20T23:04:41.386Z,101306.94
2023-05-20T23:07:09.165Z,101304.25
2023-05-20T23:09:36.879Z,101307.09
2023-05-20T23:12:05.115Z,101307.31
2023-05-20T23:14:34.239Z,101298.53
2023-05-20T23:17:02.061Z,101300.31
2023-05-20T23:19:29.935Z,101289.56
2023-05-20T23:21:57.919Z,101301.66
2023-05-20T23:24:25.655Z,101296.34
2023-05-20T23:26:53.929Z,101294.47
2023-05-20T23:29:22.215Z,101302.50
2023-05-20T23:31:51.293Z,101297.00
2023-05-20T23:34:19.102Z,101289.69
2023-05-20T23:36:46.831Z,101289.50
2023-05-20T23:39:16.246Z,101289.41
2023-05-20T23:41:45.888Z,101288.38
2023-05-20T23:44:13.587Z,101295.09
2023-05-20T23:46:41.784Z,101295.38
2023-05-20T23:49:12.282Z,101289.34
2023-05-20T23:51:40.003Z,101279.13
2023-05-20T23:54:08.066Z,101276.25
2023-05-20T23:56:36.188Z,101284.84
2023-05-20T23:59:03.912Z,101272.50
